This is the latest recevied weather packets stored in our database for station/object N4OGP-WX. If no packets are shown the sender has not sent any weather packets the latest 10 day(s).
| Time | Temp. | Humidity | Pressure | Rain* | Wind** | Luminosity | Snow |
|---|---|---|---|---|---|---|---|
| 1777338977 | 22.78° C | 90% | 1014.6 hPa | 0 mm | - | - | - |
| 1777338887 | 22.78° C | 89% | 1014.6 hPa | 0 mm | - | - | - |
| 1777338827 | 22.78° C | 89% | 1014.6 hPa | 0 mm | - | - | - |
| 1777338737 | 23.89° C | 42% | 1020.4 hPa | 0 mm | - | - | - |
| 1777338676 | 22.78° C | 89% | 1014.6 hPa | 0 mm | - | - | - |
| 1777338617 | 22.78° C | 89% | 1014.6 hPa | 0 mm | - | - | - |
| 1777338556 | 23.89° C | 42% | 1020.4 hPa | 0 mm | - | - | - |
| 1777338497 | 22.78° C | 89% | 1014.6 hPa | 0 mm | - | - | - |
| 1777338437 | 22.78° C | 89% | 1014.6 hPa | 0 mm | - | - | - |
| 1777338347 | 23.89° C | 42% | 1020.4 hPa | 0 mm | - | - | - |
| 1777338287 | 22.78° C | 89% | 1014.6 hPa | 0 mm | - | - | - |
| 1777338227 | 22.78° C | 89% | 1014.6 hPa | 0 mm | - | - | - |
| 1777338167 | 23.89° C | 42% | 1020.4 hPa | 0 mm | - | - | - |
| 1777338106 | 22.78° C | 89% | 1014.6 hPa | 0 mm | - | - | - |
| 1777338047 | 23.89° C | 42% | 1020.4 hPa | 0 mm | - | - | - |
| 1777337956 | 22.78° C | 89% | 1014.6 hPa | 0 mm | - | - | - |
| 1777337866 | 23.89° C | 42% | 1020.4 hPa | 0 mm | - | - | - |
| 1777337777 | 22.78° C | 88% | 1014.6 hPa | 0 mm | - | - | - |
| 1777337716 | 22.78° C | 88% | 1014.6 hPa | 0 mm | - | - | - |
| 1777337626 | 23.33° C | 88% | 1014.6 hPa | 0 mm | - | - | - |
| 1777337567 | 23.89° C | 42% | 1020.4 hPa | 0 mm | - | - | - |
| 1777337477 | 23.89° C | 42% | 1020.4 hPa | 0 mm | - | - | - |
| 1777337417 | 23.33° C | 88% | 1014.6 hPa | 0 mm | - | - | - |
| 1777337357 | 23.33° C | 88% | 1014.6 hPa | 0 mm | - | - | - |
| 1777337297 | 23.33° C | 88% | 1014.6 hPa | 0 mm | - | - | - |
* Rain latest hour (hover to see other rain measurements)
** Current wind speed in m/s (hover to see current wind gust speed)